Emily Anne Mcallister — WDB3028 — position and weather

sailwx.info

Track history (hours):
 
Tides and Currents Weather Stations Pressure Air Temp Water Temp Dewpoint Dewpoint Depression Visibility Wind Speed Wind Dir Waves Ship Positions

Emily Anne Mcallister

Owner: MCALLISTER TOWING & TRANSPORTATION INC, NEW YORK, NY. More information available from US FCC via Universal Licensing System and Coast Guard Vessel Documentation Center.

Last reported at 2018-Apr-10 10:06 UTC. Time now 2018-Apr-24 02:34 UTC.
Position N 36°53' W 076°21'.
Warning: this ship's position is 13 days out of date.

Length 30 m; draft 5 m.

Type: Pilot. MMSI: 366882560.

Date/timePositionNaut miles runAvg speedWind from/ knotsBaromVisibWave heightAir tempDewpointWater temp
2018-Apr-10 10:06N 36°53' W 076°21'0 2.0
2018-Apr-10 09:59N 36°53' W 076°21'2 3.3
2018-Apr-10 09:18N 36°55' W 076°20'3 6.9
2018-Apr-10 08:56N 36°52' W 076°21'0 0.1
2018-Apr-10 08:30N 36°52' W 076°21'0 0.0
2018-Apr-10 05:09N 36°52' W 076°21'0 2.1
2018-Apr-10 05:00N 36°53' W 076°21'4 8.1
2018-Apr-10 04:30N 36°49' W 076°17'1 2.8
2018-Apr-10 04:00N 36°48' W 076°17'0 0.0
2018-Apr-10 03:30N 36°48' W 076°17'0 0.1
2018-Apr-10 03:00N 36°48' W 076°17'2 3.9
2018-Apr-10 02:30N 36°50' W 076°18'1 2.4
2018-Apr-10 01:57N 36°51' W 076°18'1 2.6
2018-Apr-10 01:30N 36°50' W 076°17'0 0.0
2018-Apr-10 01:00N 36°50' W 076°17'0 0.0
2018-Apr-10 00:20N 36°50' W 076°17'0 0.0
2018-Apr-10 00:00N 36°50' W 076°17'0 0.0
2018-Apr-09 23:30N 36°50' W 076°17'0 0.0
2018-Apr-09 23:00N 36°50' W 076°17'0 0.0
2018-Apr-09 22:28N 36°50' W 076°17'0 0.0
2018-Apr-09 22:00N 36°50' W 076°17'0 0.0
2018-Apr-09 21:30N 36°50' W 076°17'0 0.0
2018-Apr-09 21:00N 36°50' W 076°17'0 0.0
2018-Apr-09 20:28N 36°50' W 076°17'0 0.0
2018-Apr-09 20:00N 36°50' W 076°17'0 0.0
2018-Apr-09 19:30N 36°50' W 076°17'0 0.0
2018-Apr-09 19:00N 36°50' W 076°17'0 0.0
2018-Apr-09 18:30N 36°50' W 076°17'0 0.0
2018-Apr-09 15:23N 36°50' W 076°17'0 0.0
2018-Apr-09 15:00N 36°50' W 076°17'1 1.5
2018-Apr-09 14:30N 36°51' W 076°18'3 0.1
2018-Apr-07 15:06N 36°53' W 076°21'0 1.3
2018-Apr-07 14:52N 36°53' W 076°21'0 0.1
2018-Apr-07 12:59N 36°53' W 076°21'  
2018-Apr-01 20:34N 36°52' W 076°20'1 9.8
2018-Apr-01 20:30N 36°52' W 076°19'4 7.1
2018-Apr-01 20:00N 36°49' W 076°17'2 4.1
2018-Apr-01 19:30N 36°47' W 076°18'0 0.0
2018-Apr-01 19:00N 36°47' W 076°18'0 0.6
2018-Apr-01 18:30N 36°47' W 076°18'2 3.8
2018-Apr-01 18:00N 36°49' W 076°17'3 4.1
2018-Apr-01 17:13N 36°52' W 076°19'0 0.4
2018-Apr-01 16:48N 36°51' W 076°19'0 0.1
2018-Apr-01 16:21N 36°52' W 076°19'2 2.4
2018-Apr-01 15:39N 36°52' W 076°21'0 0.9
2018-Apr-01 15:30N 36°53' W 076°21'0 0.1
2018-Apr-01 14:24N 36°52' W 076°21'1 2.4
2018-Apr-01 14:00N 36°52' W 076°20'1 0.1
2018-Apr-01 04:39N 36°52' W 076°19'2 3.1
2018-Apr-01 04:07N 36°53' W 076°21'0 0.3
2018-Apr-01 03:47N 36°52' W 076°21'0 0.5
2018-Apr-01 03:28N 36°53' W 076°21'3 6.5
2018-Apr-01 02:59N 36°51' W 076°18'0 0.6
2018-Apr-01 02:24N 36°50' W 076°17'0 0.0
2018-Apr-01 01:52N 36°50' W 076°17'0 0.0
2018-Apr-01 00:31N 36°50' W 076°17'0 0.0
2018-Apr-01 00:26N 36°50' W 076°17'2 4.2
2018-Apr-01 00:00N 36°52' W 076°19'1 3.0
2018-Mar-31 23:30N 36°53' W 076°20'2 0.1
2018-Mar-31 10:11N 36°55' W 076°20'  
Track history (hours):
 
Tides and Currents Weather Stations Pressure Air Temp Water Temp Dewpoint Dewpoint Depression Visibility Wind Speed Wind Dir Waves Ship Positions

Emily Anne Mcallister

Owner: MCALLISTER TOWING & TRANSPORTATION INC, NEW YORK, NY. More information available from US FCC via Universal Licensing System and Coast Guard Vessel Documentation Center.

Last reported at 2018-Apr-10 10:06 UTC. Time now 2018-Apr-24 02:34 UTC.
Position N 36°53' W 076°21'.
Warning: this ship's position is 13 days out of date.

Length 30 m; draft 5 m.

Type: Pilot. MMSI: 366882560.

Date/timePositionNaut miles runAvg speedWind from/ knotsBaromVisibWave heightAir tempDewpointWater temp
2018-Apr-10 10:06N 36°53' W 076°21'0 2.0
2018-Apr-10 09:59N 36°53' W 076°21'2 3.3
2018-Apr-10 09:18N 36°55' W 076°20'3 6.9
2018-Apr-10 08:56N 36°52' W 076°21'0 0.1
2018-Apr-10 08:30N 36°52' W 076°21'0 0.0
2018-Apr-10 05:09N 36°52' W 076°21'0 2.1
2018-Apr-10 05:00N 36°53' W 076°21'4 8.1
2018-Apr-10 04:30N 36°49' W 076°17'1 2.8
2018-Apr-10 04:00N 36°48' W 076°17'0 0.0
2018-Apr-10 03:30N 36°48' W 076°17'0 0.1
2018-Apr-10 03:00N 36°48' W 076°17'2 3.9
2018-Apr-10 02:30N 36°50' W 076°18'1 2.4
2018-Apr-10 01:57N 36°51' W 076°18'1 2.6
2018-Apr-10 01:30N 36°50' W 076°17'0 0.0
2018-Apr-10 01:00N 36°50' W 076°17'0 0.0
2018-Apr-10 00:20N 36°50' W 076°17'0 0.0
2018-Apr-10 00:00N 36°50' W 076°17'0 0.0
2018-Apr-09 23:30N 36°50' W 076°17'0 0.0
2018-Apr-09 23:00N 36°50' W 076°17'0 0.0
2018-Apr-09 22:28N 36°50' W 076°17'0 0.0
2018-Apr-09 22:00N 36°50' W 076°17'0 0.0
2018-Apr-09 21:30N 36°50' W 076°17'0 0.0
2018-Apr-09 21:00N 36°50' W 076°17'0 0.0
2018-Apr-09 20:28N 36°50' W 076°17'0 0.0
2018-Apr-09 20:00N 36°50' W 076°17'0 0.0
2018-Apr-09 19:30N 36°50' W 076°17'0 0.0
2018-Apr-09 19:00N 36°50' W 076°17'0 0.0
2018-Apr-09 18:30N 36°50' W 076°17'0 0.0
2018-Apr-09 15:23N 36°50' W 076°17'0 0.0
2018-Apr-09 15:00N 36°50' W 076°17'1 1.5
2018-Apr-09 14:30N 36°51' W 076°18'3 0.1
2018-Apr-07 15:06N 36°53' W 076°21'0 1.3
2018-Apr-07 14:52N 36°53' W 076°21'0 0.1
2018-Apr-07 12:59N 36°53' W 076°21'  
2018-Apr-01 20:34N 36°52' W 076°20'1 9.8
2018-Apr-01 20:30N 36°52' W 076°19'4 7.1
2018-Apr-01 20:00N 36°49' W 076°17'2 4.1
2018-Apr-01 19:30N 36°47' W 076°18'0 0.0
2018-Apr-01 19:00N 36°47' W 076°18'0 0.6
2018-Apr-01 18:30N 36°47' W 076°18'2 3.8
2018-Apr-01 18:00N 36°49' W 076°17'3 4.1
2018-Apr-01 17:13N 36°52' W 076°19'0 0.4
2018-Apr-01 16:48N 36°51' W 076°19'0 0.1
2018-Apr-01 16:21N 36°52' W 076°19'2 2.4
2018-Apr-01 15:39N 36°52' W 076°21'0 0.9
2018-Apr-01 15:30N 36°53' W 076°21'0 0.1
2018-Apr-01 14:24N 36°52' W 076°21'1 2.4
2018-Apr-01 14:00N 36°52' W 076°20'1 0.1
2018-Apr-01 04:39N 36°52' W 076°19'2 3.1
2018-Apr-01 04:07N 36°53' W 076°21'0 0.3
2018-Apr-01 03:47N 36°52' W 076°21'0 0.5
2018-Apr-01 03:28N 36°53' W 076°21'3 6.5
2018-Apr-01 02:59N 36°51' W 076°18'0 0.6
2018-Apr-01 02:24N 36°50' W 076°17'0 0.0
2018-Apr-01 01:52N 36°50' W 076°17'0 0.0
2018-Apr-01 00:31N 36°50' W 076°17'0 0.0
2018-Apr-01 00:26N 36°50' W 076°17'2 4.2
2018-Apr-01 00:00N 36°52' W 076°19'1 3.0
2018-Mar-31 23:30N 36°53' W 076°20'2 0.1
2018-Mar-31 10:11N 36°55' W 076°20'  

Dump ship's entire track history